Аэропорт Баку (UBBB)

baku-airport

Международный аэропорт Баку

ICAO: UBBB, IATA: GYD

Бакинский международный аэропорт имени Гейдара Алиева — один из пяти международных аэропортов, обслуживающих Азербайджан. Находится в 25 километрах к востоку от Баку. Порт приписки национальной авиакомпании «Азербайджанские авиалинии».

Принимаемые типы ВС
Ан-12, Ан-24, Ан-26, Ан-28, Ан-30, Ан-32, Ан-72, Ан-74, Ан-124(по согласованию), Ил-62, Ил-76, Ту-134, Ту-154, Як-40, Як-42, Airbus A319, Airbus A320, Airbus A321, Boeing 737, Boeing 747, Boeing 757, Boeing 767 и др. типы ВС 3-4 класса, вертолёты всех типов.

 Схемы: Jeppesen

Сценарии: бесплатные демо-версии с уменьшенным разрешением:

 fs9     fsx     Prepar

платные: http://www.drzewiecki-design.net/

METAR:

UBBB 240200Z 29002KT 9999 OVC029 07/05 Q1019 R88/CLRD// NOSIG

TAF TAF UBBB 231709Z 2318/2418 33005KT 9999 BKN025 OVC100 TX10/2410Z TN05/2403Z TEMPO 2322/2405 VRB04KT 3000 BR SCT006 BECMG 2405/2407 17012KT TEMPO 2405/2409 6000 BECMG 2409/2411 19018G28KT TEMPO 2411/2418 4000 BR BKN006